sensor_id;sensor_type;location;lat;lon;timestamp;temperature;humidity
4354;DHT22;11018;51.258;6.806;2024-03-22T00:00:32;11.60;61.90
4354;DHT22;11018;51.258;6.806;2024-03-22T00:02:58;11.60;61.80
4354;DHT22;11018;51.258;6.806;2024-03-22T00:05:23;11.50;62.50
4354;DHT22;11018;51.258;6.806;2024-03-22T00:07:50;11.60;62.40
4354;DHT22;11018;51.258;6.806;2024-03-22T00:10:15;11.60;62.50
4354;DHT22;11018;51.258;6.806;2024-03-22T00:12:41;11.60;62.90
4354;DHT22;11018;51.258;6.806;2024-03-22T00:15:07;11.60;63.10
4354;DHT22;11018;51.258;6.806;2024-03-22T00:17:32;11.60;63.00
4354;DHT22;11018;51.258;6.806;2024-03-22T00:19:59;11.50;63.30
4354;DHT22;11018;51.258;6.806;2024-03-22T00:22:25;11.50;63.70
4354;DHT22;11018;51.258;6.806;2024-03-22T00:24:50;11.50;64.10
4354;DHT22;11018;51.258;6.806;2024-03-22T00:27:16;11.50;64.20
4354;DHT22;11018;51.258;6.806;2024-03-22T00:29:41;11.50;64.10
4354;DHT22;11018;51.258;6.806;2024-03-22T00:32:07;11.40;64.40
4354;DHT22;11018;51.258;6.806;2024-03-22T00:34:34;11.50;64.30
4354;DHT22;11018;51.258;6.806;2024-03-22T00:37:00;11.40;64.50
4354;DHT22;11018;51.258;6.806;2024-03-22T00:39:25;11.50;64.60
4354;DHT22;11018;51.258;6.806;2024-03-22T00:41:51;11.50;64.80
4354;DHT22;11018;51.258;6.806;2024-03-22T00:44:16;11.40;64.30
4354;DHT22;11018;51.258;6.806;2024-03-22T00:46:42;11.50;63.70
4354;DHT22;11018;51.258;6.806;2024-03-22T00:49:07;11.50;63.50
4354;DHT22;11018;51.258;6.806;2024-03-22T00:51:33;11.50;63.50
4354;DHT22;11018;51.258;6.806;2024-03-22T00:53:58;11.40;64.00
4354;DHT22;11018;51.258;6.806;2024-03-22T00:56:24;11.50;64.00
4354;DHT22;11018;51.258;6.806;2024-03-22T00:58:49;11.50;63.80
4354;DHT22;11018;51.258;6.806;2024-03-22T01:01:15;11.40;64.50
4354;DHT22;11018;51.258;6.806;2024-03-22T01:03:40;11.40;64.70
4354;DHT22;11018;51.258;6.806;2024-03-22T01:06:06;11.40;64.40
4354;DHT22;11018;51.258;6.806;2024-03-22T01:08:32;11.30;65.50
4354;DHT22;11018;51.258;6.806;2024-03-22T01:10:58;11.40;65.50
4354;DHT22;11018;51.258;6.806;2024-03-22T01:13:23;11.30;65.60
4354;DHT22;11018;51.258;6.806;2024-03-22T01:15:49;11.30;65.60
4354;DHT22;11018;51.258;6.806;2024-03-22T01:18:15;11.40;65.30
4354;DHT22;11018;51.258;6.806;2024-03-22T01:20:40;11.30;66.40
4354;DHT22;11018;51.258;6.806;2024-03-22T01:23:07;11.40;66.90
4354;DHT22;11018;51.258;6.806;2024-03-22T01:25:33;11.30;66.70
4354;DHT22;11018;51.258;6.806;2024-03-22T01:27:58;11.30;67.00
4354;DHT22;11018;51.258;6.806;2024-03-22T01:30:24;11.30;66.60
4354;DHT22;11018;51.258;6.806;2024-03-22T01:32:54;11.30;67.10
4354;DHT22;11018;51.258;6.806;2024-03-22T01:35:20;11.30;66.70
4354;DHT22;11018;51.258;6.806;2024-03-22T01:37:45;11.30;66.70
4354;DHT22;11018;51.258;6.806;2024-03-22T01:40:11;11.30;66.60
4354;DHT22;11018;51.258;6.806;2024-03-22T01:42:36;11.30;66.70
4354;DHT22;11018;51.258;6.806;2024-03-22T01:45:02;11.30;66.70
4354;DHT22;11018;51.258;6.806;2024-03-22T01:47:29;11.30;66.70
4354;DHT22;11018;51.258;6.806;2024-03-22T01:49:55;11.30;66.60
4354;DHT22;11018;51.258;6.806;2024-03-22T01:52:20;11.30;67.10
4354;DHT22;11018;51.258;6.806;2024-03-22T01:54:46;11.30;67.20
4354;DHT22;11018;51.258;6.806;2024-03-22T01:57:12;11.20;67.30
4354;DHT22;11018;51.258;6.806;2024-03-22T01:59:37;11.30;66.80
4354;DHT22;11018;51.258;6.806;2024-03-22T02:02:04;11.30;67.30
4354;DHT22;11018;51.258;6.806;2024-03-22T02:04:29;11.30;66.70
4354;DHT22;11018;51.258;6.806;2024-03-22T02:06:55;11.30;66.80
4354;DHT22;11018;51.258;6.806;2024-03-22T02:09:20;11.30;66.50
4354;DHT22;11018;51.258;6.806;2024-03-22T02:11:47;11.30;67.00
4354;DHT22;11018;51.258;6.806;2024-03-22T02:14:13;11.30;66.90
4354;DHT22;11018;51.258;6.806;2024-03-22T02:16:40;11.40;66.70
4354;DHT22;11018;51.258;6.806;2024-03-22T02:19:06;11.30;66.90
4354;DHT22;11018;51.258;6.806;2024-03-22T02:21:31;11.40;66.40
4354;DHT22;11018;51.258;6.806;2024-03-22T02:23:57;11.30;66.20
4354;DHT22;11018;51.258;6.806;2024-03-22T02:26:23;11.30;66.20
4354;DHT22;11018;51.258;6.806;2024-03-22T02:28:48;11.30;66.60
4354;DHT22;11018;51.258;6.806;2024-03-22T02:31:14;11.40;66.10
4354;DHT22;11018;51.258;6.806;2024-03-22T02:33:39;11.30;66.60
4354;DHT22;11018;51.258;6.806;2024-03-22T02:36:05;11.30;66.60
4354;DHT22;11018;51.258;6.806;2024-03-22T02:38:31;11.30;66.30
4354;DHT22;11018;51.258;6.806;2024-03-22T02:40:58;11.40;67.00
4354;DHT22;11018;51.258;6.806;2024-03-22T02:43:23;11.40;66.70
4354;DHT22;11018;51.258;6.806;2024-03-22T02:45:49;11.40;65.90
4354;DHT22;11018;51.258;6.806;2024-03-22T02:48:15;11.40;66.20
4354;DHT22;11018;51.258;6.806;2024-03-22T02:50:40;11.40;67.00
4354;DHT22;11018;51.258;6.806;2024-03-22T02:53:06;11.30;67.10
4354;DHT22;11018;51.258;6.806;2024-03-22T02:55:41;11.30;67.70
4354;DHT22;11018;51.258;6.806;2024-03-22T02:58:07;11.30;68.00
4354;DHT22;11018;51.258;6.806;2024-03-22T03:00:39;11.30;67.20
4354;DHT22;11018;51.258;6.806;2024-03-22T03:03:08;11.30;67.60
4354;DHT22;11018;51.258;6.806;2024-03-22T03:05:34;11.20;68.40
4354;DHT22;11018;51.258;6.806;2024-03-22T03:08:00;11.10;68.90
4354;DHT22;11018;51.258;6.806;2024-03-22T03:10:26;11.10;70.30
4354;DHT22;11018;51.258;6.806;2024-03-22T03:12:53;11.00;70.30
4354;DHT22;11018;51.258;6.806;2024-03-22T03:15:19;11.00;71.20
4354;DHT22;11018;51.258;6.806;2024-03-22T03:17:45;11.00;70.90
4354;DHT22;11018;51.258;6.806;2024-03-22T03:20:11;10.90;72.60
4354;DHT22;11018;51.258;6.806;2024-03-22T03:22:41;10.90;72.50
4354;DHT22;11018;51.258;6.806;2024-03-22T03:25:07;10.90;73.70
4354;DHT22;11018;51.258;6.806;2024-03-22T03:27:33;10.90;74.00
4354;DHT22;11018;51.258;6.806;2024-03-22T03:29:59;10.90;73.70
4354;DHT22;11018;51.258;6.806;2024-03-22T03:32:25;11.00;72.90
4354;DHT22;11018;51.258;6.806;2024-03-22T03:34:51;11.00;73.00
4354;DHT22;11018;51.258;6.806;2024-03-22T03:37:17;11.00;73.40
4354;DHT22;11018;51.258;6.806;2024-03-22T03:39:42;11.00;74.40
4354;DHT22;11018;51.258;6.806;2024-03-22T03:42:08;10.90;74.70
4354;DHT22;11018;51.258;6.806;2024-03-22T03:44:33;10.80;76.50
4354;DHT22;11018;51.258;6.806;2024-03-22T03:47:01;10.80;77.10
4354;DHT22;11018;51.258;6.806;2024-03-22T03:49:26;10.70;77.70
4354;DHT22;11018;51.258;6.806;2024-03-22T03:51:52;10.60;78.80
4354;DHT22;11018;51.258;6.806;2024-03-22T03:54:18;10.50;80.00
4354;DHT22;11018;51.258;6.806;2024-03-22T03:56:43;10.50;81.70
4354;DHT22;11018;51.258;6.806;2024-03-22T03:59:09;10.40;82.50
4354;DHT22;11018;51.258;6.806;2024-03-22T04:01:34;10.30;83.80
4354;DHT22;11018;51.258;6.806;2024-03-22T04:04:00;10.30;85.10
4354;DHT22;11018;51.258;6.806;2024-03-22T04:06:26;10.20;85.30
4354;DHT22;11018;51.258;6.806;2024-03-22T04:08:51;10.20;86.50
4354;DHT22;11018;51.258;6.806;2024-03-22T04:11:16;10.20;85.90
4354;DHT22;11018;51.258;6.806;2024-03-22T04:13:42;10.20;87.70
4354;DHT22;11018;51.258;6.806;2024-03-22T04:16:08;10.20;87.10
4354;DHT22;11018;51.258;6.806;2024-03-22T04:18:33;10.20;87.20
4354;DHT22;11018;51.258;6.806;2024-03-22T04:21:00;10.10;87.40
4354;DHT22;11018;51.258;6.806;2024-03-22T04:23:25;10.10;88.50
4354;DHT22;11018;51.258;6.806;2024-03-22T04:25:53;10.10;89.20
4354;DHT22;11018;51.258;6.806;2024-03-22T04:28:18;10.10;89.40
4354;DHT22;11018;51.258;6.806;2024-03-22T04:31:03;10.20;88.60
4354;DHT22;11018;51.258;6.806;2024-03-22T04:33:30;10.20;87.90
4354;DHT22;11018;51.258;6.806;2024-03-22T04:35:57;10.20;88.20
4354;DHT22;11018;51.258;6.806;2024-03-22T04:38:24;10.30;88.50
4354;DHT22;11018;51.258;6.806;2024-03-22T04:40:49;10.30;87.80
4354;DHT22;11018;51.258;6.806;2024-03-22T04:43:16;10.30;87.80
4354;DHT22;11018;51.258;6.806;2024-03-22T04:45:43;10.40;86.60
4354;DHT22;11018;51.258;6.806;2024-03-22T04:48:09;10.50;85.90
4354;DHT22;11018;51.258;6.806;2024-03-22T04:50:35;10.50;84.30
4354;DHT22;11018;51.258;6.806;2024-03-22T04:53:01;10.50;84.20
4354;DHT22;11018;51.258;6.806;2024-03-22T04:55:26;10.50;83.80
4354;DHT22;11018;51.258;6.806;2024-03-22T04:57:52;10.60;82.90
4354;DHT22;11018;51.258;6.806;2024-03-22T05:00:18;10.60;82.80
4354;DHT22;11018;51.258;6.806;2024-03-22T05:02:44;10.60;82.10
4354;DHT22;11018;51.258;6.806;2024-03-22T05:05:09;10.60;82.80
4354;DHT22;11018;51.258;6.806;2024-03-22T05:07:35;10.60;82.80
4354;DHT22;11018;51.258;6.806;2024-03-22T05:10:01;10.60;83.00
4354;DHT22;11018;51.258;6.806;2024-03-22T05:12:27;10.60;83.10
4354;DHT22;11018;51.258;6.806;2024-03-22T05:14:53;10.70;81.80
4354;DHT22;11018;51.258;6.806;2024-03-22T05:17:18;10.80;81.90
4354;DHT22;11018;51.258;6.806;2024-03-22T05:19:44;10.70;81.70
4354;DHT22;11018;51.258;6.806;2024-03-22T05:22:09;10.80;81.60
4354;DHT22;11018;51.258;6.806;2024-03-22T05:24:35;10.90;80.90
4354;DHT22;11018;51.258;6.806;2024-03-22T05:27:00;10.90;80.70
4354;DHT22;11018;51.258;6.806;2024-03-22T05:29:26;10.90;80.10
4354;DHT22;11018;51.258;6.806;2024-03-22T05:31:52;11.00;79.90
4354;DHT22;11018;51.258;6.806;2024-03-22T05:34:18;11.00;79.60
4354;DHT22;11018;51.258;6.806;2024-03-22T05:36:45;11.00;79.10
4354;DHT22;11018;51.258;6.806;2024-03-22T05:39:10;11.10;78.30
4354;DHT22;11018;51.258;6.806;2024-03-22T05:41:37;11.00;77.80
4354;DHT22;11018;51.258;6.806;2024-03-22T05:44:06;11.10;76.90
4354;DHT22;11018;51.258;6.806;2024-03-22T05:46:31;11.10;77.10
4354;DHT22;11018;51.258;6.806;2024-03-22T05:49:00;11.10;77.30
4354;DHT22;11018;51.258;6.806;2024-03-22T05:51:26;11.20;76.20
4354;DHT22;11018;51.258;6.806;2024-03-22T05:53:51;11.30;74.60
4354;DHT22;11018;51.258;6.806;2024-03-22T05:56:17;11.30;74.40
4354;DHT22;11018;51.258;6.806;2024-03-22T05:58:42;11.20;74.00
4354;DHT22;11018;51.258;6.806;2024-03-22T06:01:08;11.30;75.10
4354;DHT22;11018;51.258;6.806;2024-03-22T06:03:34;11.30;74.30
4354;DHT22;11018;51.258;6.806;2024-03-22T06:06:00;11.40;73.30
4354;DHT22;11018;51.258;6.806;2024-03-22T06:08:28;11.40;73.70
4354;DHT22;11018;51.258;6.806;2024-03-22T06:10:54;11.40;73.30
4354;DHT22;11018;51.258;6.806;2024-03-22T06:13:21;11.40;73.30
4354;DHT22;11018;51.258;6.806;2024-03-22T06:15:49;11.50;73.70
4354;DHT22;11018;51.258;6.806;2024-03-22T06:18:14;11.60;72.60
4354;DHT22;11018;51.258;6.806;2024-03-22T06:20:40;11.70;71.10
4354;DHT22;11018;51.258;6.806;2024-03-22T06:23:07;11.80;70.00
4354;DHT22;11018;51.258;6.806;2024-03-22T06:25:32;11.90;68.60
4354;DHT22;11018;51.258;6.806;2024-03-22T06:27:58;12.00;67.20
4354;DHT22;11018;51.258;6.806;2024-03-22T06:30:23;12.10;65.90
4354;DHT22;11018;51.258;6.806;2024-03-22T06:32:49;12.20;65.60
4354;DHT22;11018;51.258;6.806;2024-03-22T06:35:14;12.30;64.20
4354;DHT22;11018;51.258;6.806;2024-03-22T06:37:40;12.40;63.40
4354;DHT22;11018;51.258;6.806;2024-03-22T06:40:09;12.40;62.20
4354;DHT22;11018;51.258;6.806;2024-03-22T06:42:35;12.50;60.90
4354;DHT22;11018;51.258;6.806;2024-03-22T06:45:02;12.60;60.50
4354;DHT22;11018;51.258;6.806;2024-03-22T06:47:28;12.70;59.30
4354;DHT22;11018;51.258;6.806;2024-03-22T06:49:53;12.80;58.90
4354;DHT22;11018;51.258;6.806;2024-03-22T06:52:19;12.80;58.10
4354;DHT22;11018;51.258;6.806;2024-03-22T06:54:45;12.80;57.60
4354;DHT22;11018;51.258;6.806;2024-03-22T06:57:11;12.90;56.10
4354;DHT22;11018;51.258;6.806;2024-03-22T06:59:36;12.90;56.50
4354;DHT22;11018;51.258;6.806;2024-03-22T07:02:02;13.00;55.80
4354;DHT22;11018;51.258;6.806;2024-03-22T07:04:28;13.10;55.30
4354;DHT22;11018;51.258;6.806;2024-03-22T07:06:53;13.20;54.00
4354;DHT22;11018;51.258;6.806;2024-03-22T07:09:19;13.30;53.10
4354;DHT22;11018;51.258;6.806;2024-03-22T07:11:44;13.50;52.50
4354;DHT22;11018;51.258;6.806;2024-03-22T07:14:10;13.60;51.30
4354;DHT22;11018;51.258;6.806;2024-03-22T07:16:35;13.80;50.60
4354;DHT22;11018;51.258;6.806;2024-03-22T07:19:02;13.90;49.60
4354;DHT22;11018;51.258;6.806;2024-03-22T07:21:29;14.00;48.90
4354;DHT22;11018;51.258;6.806;2024-03-22T07:23:54;14.10;48.60
4354;DHT22;11018;51.258;6.806;2024-03-22T07:26:20;14.20;48.60
4354;DHT22;11018;51.258;6.806;2024-03-22T07:28:45;14.30;48.30
4354;DHT22;11018;51.258;6.806;2024-03-22T07:31:11;14.40;47.80
4354;DHT22;11018;51.258;6.806;2024-03-22T07:33:36;14.50;47.30
4354;DHT22;11018;51.258;6.806;2024-03-22T07:36:04;14.70;46.70
4354;DHT22;11018;51.258;6.806;2024-03-22T07:38:30;14.80;45.60
4354;DHT22;11018;51.258;6.806;2024-03-22T07:40:56;15.00;45.30
4354;DHT22;11018;51.258;6.806;2024-03-22T07:43:21;15.10;44.80
4354;DHT22;11018;51.258;6.806;2024-03-22T07:45:47;15.30;43.90
4354;DHT22;11018;51.258;6.806;2024-03-22T07:48:12;15.30;43.50
4354;DHT22;11018;51.258;6.806;2024-03-22T07:50:38;15.40;43.00
4354;DHT22;11018;51.258;6.806;2024-03-22T07:53:03;15.50;43.10
4354;DHT22;11018;51.258;6.806;2024-03-22T07:55:29;15.60;41.90
4354;DHT22;11018;51.258;6.806;2024-03-22T07:57:55;15.60;41.20
4354;DHT22;11018;51.258;6.806;2024-03-22T08:00:21;15.60;41.80
4354;DHT22;11018;51.258;6.806;2024-03-22T08:02:47;15.70;41.70
4354;DHT22;11018;51.258;6.806;2024-03-22T08:05:12;15.80;41.00
4354;DHT22;11018;51.258;6.806;2024-03-22T08:07:38;15.80;41.20
4354;DHT22;11018;51.258;6.806;2024-03-22T08:10:04;15.80;40.00
4354;DHT22;11018;51.258;6.806;2024-03-22T08:12:30;15.80;40.00
4354;DHT22;11018;51.258;6.806;2024-03-22T08:14:55;15.90;40.30
4354;DHT22;11018;51.258;6.806;2024-03-22T08:17:21;15.90;40.10
4354;DHT22;11018;51.258;6.806;2024-03-22T08:19:47;15.80;39.90
4354;DHT22;11018;51.258;6.806;2024-03-22T08:22:12;15.70;39.80
4354;DHT22;11018;51.258;6.806;2024-03-22T08:24:38;15.70;39.80
4354;DHT22;11018;51.258;6.806;2024-03-22T08:27:03;15.70;40.50
4354;DHT22;11018;51.258;6.806;2024-03-22T08:29:29;15.80;39.10
4354;DHT22;11018;51.258;6.806;2024-03-22T08:31:55;15.80;39.30
4354;DHT22;11018;51.258;6.806;2024-03-22T08:34:21;15.90;39.10
4354;DHT22;11018;51.258;6.806;2024-03-22T08:36:47;15.90;38.50
4354;DHT22;11018;51.258;6.806;2024-03-22T08:39:12;15.80;38.60
4354;DHT22;11018;51.258;6.806;2024-03-22T08:41:38;15.90;38.60
4354;DHT22;11018;51.258;6.806;2024-03-22T08:44:04;15.90;38.30
4354;DHT22;11018;51.258;6.806;2024-03-22T08:46:29;15.90;38.00
4354;DHT22;11018;51.258;6.806;2024-03-22T08:48:57;15.90;37.60
4354;DHT22;11018;51.258;6.806;2024-03-22T08:51:23;15.90;37.70
4354;DHT22;11018;51.258;6.806;2024-03-22T08:53:48;15.90;38.20
4354;DHT22;11018;51.258;6.806;2024-03-22T08:56:14;16.10;37.50
4354;DHT22;11018;51.258;6.806;2024-03-22T08:58:39;16.10;36.50
4354;DHT22;11018;51.258;6.806;2024-03-22T09:01:05;16.10;36.40
4354;DHT22;11018;51.258;6.806;2024-03-22T09:03:31;16.10;35.70
4354;DHT22;11018;51.258;6.806;2024-03-22T09:05:57;16.10;34.60
4354;DHT22;11018;51.258;6.806;2024-03-22T09:08:23;16.10;33.90
4354;DHT22;11018;51.258;6.806;2024-03-22T09:10:48;16.00;34.60
4354;DHT22;11018;51.258;6.806;2024-03-22T09:13:14;16.10;34.90
4354;DHT22;11018;51.258;6.806;2024-03-22T09:15:40;16.20;35.10
4354;DHT22;11018;51.258;6.806;2024-03-22T09:18:05;16.50;33.60
4354;DHT22;11018;51.258;6.806;2024-03-22T09:20:31;16.80;32.60
4354;DHT22;11018;51.258;6.806;2024-03-22T09:22:57;17.10;32.10
4354;DHT22;11018;51.258;6.806;2024-03-22T09:25:25;17.20;31.40
4354;DHT22;11018;51.258;6.806;2024-03-22T09:27:51;17.30;31.00
4354;DHT22;11018;51.258;6.806;2024-03-22T09:30:16;17.40;31.40
4354;DHT22;11018;51.258;6.806;2024-03-22T09:32:42;17.60;31.00
4354;DHT22;11018;51.258;6.806;2024-03-22T09:35:08;17.80;29.60
4354;DHT22;11018;51.258;6.806;2024-03-22T09:37:34;18.00;28.50
4354;DHT22;11018;51.258;6.806;2024-03-22T09:40:00;18.00;28.10
4354;DHT22;11018;51.258;6.806;2024-03-22T09:42:29;18.10;27.10
4354;DHT22;11018;51.258;6.806;2024-03-22T09:44:57;18.20;26.00
4354;DHT22;11018;51.258;6.806;2024-03-22T09:47:24;18.00;26.30
4354;DHT22;11018;51.258;6.806;2024-03-22T09:49:50;18.00;25.80
4354;DHT22;11018;51.258;6.806;2024-03-22T09:52:20;17.70;26.70
4354;DHT22;11018;51.258;6.806;2024-03-22T09:54:46;17.60;26.80
4354;DHT22;11018;51.258;6.806;2024-03-22T09:57:15;17.60;25.20
4354;DHT22;11018;51.258;6.806;2024-03-22T09:59:42;17.60;25.60
4354;DHT22;11018;51.258;6.806;2024-03-22T10:02:11;17.60;24.10
4354;DHT22;11018;51.258;6.806;2024-03-22T10:04:38;17.60;25.50
4354;DHT22;11018;51.258;6.806;2024-03-22T10:07:03;17.70;25.40
4354;DHT22;11018;51.258;6.806;2024-03-22T10:09:30;17.70;25.50
4354;DHT22;11018;51.258;6.806;2024-03-22T10:11:56;17.60;25.70
4354;DHT22;11018;51.258;6.806;2024-03-22T10:14:22;17.70;26.20
4354;DHT22;11018;51.258;6.806;2024-03-22T10:16:51;17.60;25.80
4354;DHT22;11018;51.258;6.806;2024-03-22T10:19:22;17.60;25.40
4354;DHT22;11018;51.258;6.806;2024-03-22T10:22:02;17.80;24.90
4354;DHT22;11018;51.258;6.806;2024-03-22T10:24:29;17.80;24.90
4354;DHT22;11018;51.258;6.806;2024-03-22T10:26:55;17.60;24.30
4354;DHT22;11018;51.258;6.806;2024-03-22T10:29:21;17.60;24.80
4354;DHT22;11018;51.258;6.806;2024-03-22T10:31:54;17.50;25.50
4354;DHT22;11018;51.258;6.806;2024-03-22T10:34:24;17.40;25.70
4354;DHT22;11018;51.258;6.806;2024-03-22T10:36:50;17.40;25.30
4354;DHT22;11018;51.258;6.806;2024-03-22T10:39:17;17.40;25.40
4354;DHT22;11018;51.258;6.806;2024-03-22T10:41:46;17.30;26.70
4354;DHT22;11018;51.258;6.806;2024-03-22T10:44:13;17.30;27.10
4354;DHT22;11018;51.258;6.806;2024-03-22T10:46:45;17.30;27.30
4354;DHT22;11018;51.258;6.806;2024-03-22T10:49:19;17.30;28.00
4354;DHT22;11018;51.258;6.806;2024-03-22T10:51:59;17.40;26.30
4354;DHT22;11018;51.258;6.806;2024-03-22T10:54:32;17.30;26.50
4354;DHT22;11018;51.258;6.806;2024-03-22T10:56:59;17.20;26.60
4354;DHT22;11018;51.258;6.806;2024-03-22T10:59:25;17.10;26.80
4354;DHT22;11018;51.258;6.806;2024-03-22T11:01:51;17.10;26.40
4354;DHT22;11018;51.258;6.806;2024-03-22T11:04:17;17.20;26.60
4354;DHT22;11018;51.258;6.806;2024-03-22T11:06:52;17.30;25.80
4354;DHT22;11018;51.258;6.806;2024-03-22T11:09:25;17.30;26.10
4354;DHT22;11018;51.258;6.806;2024-03-22T11:11:56;17.40;26.70
4354;DHT22;11018;51.258;6.806;2024-03-22T11:14:25;17.50;26.90
4354;DHT22;11018;51.258;6.806;2024-03-22T11:16:50;17.60;26.30
4354;DHT22;11018;51.258;6.806;2024-03-22T11:19:16;17.80;25.70
4354;DHT22;11018;51.258;6.806;2024-03-22T11:21:42;18.00;25.30
4354;DHT22;11018;51.258;6.806;2024-03-22T11:24:07;18.10;25.20
4354;DHT22;11018;51.258;6.806;2024-03-22T11:26:33;18.10;24.90
4354;DHT22;11018;51.258;6.806;2024-03-22T11:29:00;18.10;25.20
4354;DHT22;11018;51.258;6.806;2024-03-22T11:31:26;18.00;25.70
4354;DHT22;11018;51.258;6.806;2024-03-22T11:33:55;18.10;25.90
4354;DHT22;11018;51.258;6.806;2024-03-22T11:36:21;18.10;25.70
4354;DHT22;11018;51.258;6.806;2024-03-22T11:38:47;18.10;26.20
4354;DHT22;11018;51.258;6.806;2024-03-22T11:41:28;18.00;26.20
4354;DHT22;11018;51.258;6.806;2024-03-22T11:43:54;17.70;27.30
4354;DHT22;11018;51.258;6.806;2024-03-22T11:46:20;17.60;28.10
4354;DHT22;11018;51.258;6.806;2024-03-22T11:48:52;17.70;27.80
4354;DHT22;11018;51.258;6.806;2024-03-22T11:51:19;17.60;28.10
4354;DHT22;11018;51.258;6.806;2024-03-22T11:53:51;17.80;28.20
4354;DHT22;11018;51.258;6.806;2024-03-22T11:56:18;17.80;28.20
4354;DHT22;11018;51.258;6.806;2024-03-22T11:58:46;17.60;28.60
4354;DHT22;11018;51.258;6.806;2024-03-22T12:01:13;17.40;29.50
4354;DHT22;11018;51.258;6.806;2024-03-22T12:03:38;17.40;29.60
4354;DHT22;11018;51.258;6.806;2024-03-22T12:06:06;17.40;29.20
4354;DHT22;11018;51.258;6.806;2024-03-22T12:08:31;17.60;29.30
4354;DHT22;11018;51.258;6.806;2024-03-22T12:10:57;17.70;29.10
4354;DHT22;11018;51.258;6.806;2024-03-22T12:13:22;17.50;29.40
4354;DHT22;11018;51.258;6.806;2024-03-22T12:15:48;17.20;30.60
4354;DHT22;11018;51.258;6.806;2024-03-22T12:18:14;17.00;30.90
4354;DHT22;11018;51.258;6.806;2024-03-22T12:20:39;16.80;31.50
4354;DHT22;11018;51.258;6.806;2024-03-22T12:23:05;16.80;32.20
4354;DHT22;11018;51.258;6.806;2024-03-22T12:25:31;16.80;32.20
4354;DHT22;11018;51.258;6.806;2024-03-22T12:27:56;16.80;31.90
4354;DHT22;11018;51.258;6.806;2024-03-22T12:30:22;16.90;31.70
4354;DHT22;11018;51.258;6.806;2024-03-22T12:32:47;16.80;31.80
4354;DHT22;11018;51.258;6.806;2024-03-22T12:35:13;16.80;31.70
4354;DHT22;11018;51.258;6.806;2024-03-22T12:37:38;16.80;31.80
4354;DHT22;11018;51.258;6.806;2024-03-22T12:40:05;16.80;31.80
4354;DHT22;11018;51.258;6.806;2024-03-22T12:42:33;16.90;31.80
4354;DHT22;11018;51.258;6.806;2024-03-22T12:44:59;17.00;30.60
4354;DHT22;11018;51.258;6.806;2024-03-22T12:47:25;17.00;30.20
4354;DHT22;11018;51.258;6.806;2024-03-22T12:49:50;16.90;30.30
4354;DHT22;11018;51.258;6.806;2024-03-22T12:52:16;16.90;30.40
4354;DHT22;11018;51.258;6.806;2024-03-22T12:54:42;16.60;31.00
4354;DHT22;11018;51.258;6.806;2024-03-22T12:57:07;16.60;31.80
4354;DHT22;11018;51.258;6.806;2024-03-22T12:59:33;16.70;31.80
4354;DHT22;11018;51.258;6.806;2024-03-22T13:01:59;16.70;31.20
4354;DHT22;11018;51.258;6.806;2024-03-22T13:04:26;16.70;31.30
4354;DHT22;11018;51.258;6.806;2024-03-22T13:06:52;16.50;31.30
4354;DHT22;11018;51.258;6.806;2024-03-22T13:09:18;16.10;32.90
4354;DHT22;11018;51.258;6.806;2024-03-22T13:11:47;16.10;33.60
4354;DHT22;11018;51.258;6.806;2024-03-22T13:14:13;15.90;33.80
4354;DHT22;11018;51.258;6.806;2024-03-22T13:16:39;15.60;35.10
4354;DHT22;11018;51.258;6.806;2024-03-22T13:19:05;15.60;35.40
4354;DHT22;11018;51.258;6.806;2024-03-22T13:21:34;15.60;34.90
4354;DHT22;11018;51.258;6.806;2024-03-22T13:23:59;15.40;35.60
4354;DHT22;11018;51.258;6.806;2024-03-22T13:26:25;15.40;35.50
4354;DHT22;11018;51.258;6.806;2024-03-22T13:28:51;15.20;35.60
4354;DHT22;11018;51.258;6.806;2024-03-22T13:31:17;15.20;35.90
4354;DHT22;11018;51.258;6.806;2024-03-22T13:33:42;15.00;36.10
4354;DHT22;11018;51.258;6.806;2024-03-22T13:36:08;14.50;37.00
4354;DHT22;11018;51.258;6.806;2024-03-22T13:38:34;14.40;38.40
4354;DHT22;11018;51.258;6.806;2024-03-22T13:40:59;14.40;38.80
4354;DHT22;11018;51.258;6.806;2024-03-22T13:43:26;14.50;39.20
4354;DHT22;11018;51.258;6.806;2024-03-22T13:45:55;14.60;38.80
4354;DHT22;11018;51.258;6.806;2024-03-22T13:48:24;14.70;38.50
4354;DHT22;11018;51.258;6.806;2024-03-22T13:50:52;14.50;38.90
4354;DHT22;11018;51.258;6.806;2024-03-22T13:53:18;14.50;39.40
4354;DHT22;11018;51.258;6.806;2024-03-22T13:55:43;14.60;38.90
4354;DHT22;11018;51.258;6.806;2024-03-22T13:58:09;14.50;38.90
4354;DHT22;11018;51.258;6.806;2024-03-22T14:00:34;14.30;40.00
4354;DHT22;11018;51.258;6.806;2024-03-22T14:03:01;14.20;40.20
4354;DHT22;11018;51.258;6.806;2024-03-22T14:05:27;14.20;40.60
4354;DHT22;11018;51.258;6.806;2024-03-22T14:07:52;14.30;40.80
4354;DHT22;11018;51.258;6.806;2024-03-22T14:10:18;14.40;39.80
4354;DHT22;11018;51.258;6.806;2024-03-22T14:12:46;14.30;40.00
4354;DHT22;11018;51.258;6.806;2024-03-22T14:15:12;14.30;40.90
4354;DHT22;11018;51.258;6.806;2024-03-22T14:17:38;14.20;40.90
4354;DHT22;11018;51.258;6.806;2024-03-22T14:20:04;14.10;40.50
4354;DHT22;11018;51.258;6.806;2024-03-22T14:22:38;14.00;41.80
4354;DHT22;11018;51.258;6.806;2024-03-22T14:25:04;13.90;42.10
4354;DHT22;11018;51.258;6.806;2024-03-22T14:27:30;13.70;42.70
4354;DHT22;11018;51.258;6.806;2024-03-22T14:29:55;13.40;44.50
4354;DHT22;11018;51.258;6.806;2024-03-22T14:32:21;13.30;45.10
4354;DHT22;11018;51.258;6.806;2024-03-22T14:34:47;13.30;45.80
4354;DHT22;11018;51.258;6.806;2024-03-22T14:37:12;13.10;46.30
4354;DHT22;11018;51.258;6.806;2024-03-22T14:39:38;13.20;46.80
4354;DHT22;11018;51.258;6.806;2024-03-22T14:42:03;13.30;46.30
4354;DHT22;11018;51.258;6.806;2024-03-22T14:44:30;13.50;46.00
4354;DHT22;11018;51.258;6.806;2024-03-22T14:46:56;13.60;45.70
4354;DHT22;11018;51.258;6.806;2024-03-22T14:49:23;13.40;44.50
4354;DHT22;11018;51.258;6.806;2024-03-22T14:51:50;13.30;45.70
4354;DHT22;11018;51.258;6.806;2024-03-22T14:54:16;13.20;46.50
4354;DHT22;11018;51.258;6.806;2024-03-22T14:56:42;13.30;46.20
4354;DHT22;11018;51.258;6.806;2024-03-22T14:59:07;13.20;46.10
4354;DHT22;11018;51.258;6.806;2024-03-22T15:01:33;13.20;46.70
4354;DHT22;11018;51.258;6.806;2024-03-22T15:03:58;13.10;46.80
4354;DHT22;11018;51.258;6.806;2024-03-22T15:06:24;13.10;48.00
4354;DHT22;11018;51.258;6.806;2024-03-22T15:08:49;13.00;48.20
4354;DHT22;11018;51.258;6.806;2024-03-22T15:11:15;12.90;48.20
4354;DHT22;11018;51.258;6.806;2024-03-22T15:13:41;12.80;49.20
4354;DHT22;11018;51.258;6.806;2024-03-22T15:16:07;12.80;49.80
4354;DHT22;11018;51.258;6.806;2024-03-22T15:18:32;12.60;51.40
4354;DHT22;11018;51.258;6.806;2024-03-22T15:20:58;12.70;52.20
4354;DHT22;11018;51.258;6.806;2024-03-22T15:23:23;12.70;52.80
4354;DHT22;11018;51.258;6.806;2024-03-22T15:25:49;12.70;52.30
4354;DHT22;11018;51.258;6.806;2024-03-22T15:28:15;12.70;52.60
4354;DHT22;11018;51.258;6.806;2024-03-22T15:30:40;12.70;53.40
4354;DHT22;11018;51.258;6.806;2024-03-22T15:33:10;12.70;55.30
4354;DHT22;11018;51.258;6.806;2024-03-22T15:35:35;12.70;56.70
4354;DHT22;11018;51.258;6.806;2024-03-22T15:38:02;12.70;57.90